BAW76 LHBP-LWSK
Flight info
| Callsign | BAW76 |
|---|---|
| Flight time | 1h 4m |
| Altitude | 35000 |
| Route | FAHAZ2L FAHAZ DCT KEROP DCT REDVA UL616 KOGAT KOGAT1A |
| Aircraft | A319/M-SDE3FGIJ1KRWXY/LB1 |
Departure
| Time | 2026-04-22 07:17 |
|---|---|
| Airport | Budapest Liszt Ferenc International Airport (LHBP) |
Arrival
| Time | 2026-04-22 08:21 |
|---|---|
| Airport | Skopje International Airport (LWSK) |
| Time | Latitude | Longitude | Altitude | Speed | Heading |
|---|---|---|---|---|---|
| 2026-04-22 06:31 | 47.43143 | 19.25926 | 458 ft | 0 kts | 43° |
| 2026-04-22 07:08 | 47.43141 | 19.25924 | 457 ft | 2 kts | 43° |
| 2026-04-22 07:08 | 47.43122 | 19.25898 | 457 ft | 4 kts | 38° |
| 2026-04-22 07:09 | 47.43100 | 19.25876 | 457 ft | 4 kts | 24° |
| 2026-04-22 07:09 | 47.43076 | 19.25868 | 457 ft | 4 kts | 335° |
| 2026-04-22 07:09 | 47.43069 | 19.25874 | 457 ft | 0 kts | 313° |
| 2026-04-22 07:12 | 47.43070 | 19.25873 | 457 ft | 1 kts | 313° |
| 2026-04-22 07:13 | 47.43075 | 19.25864 | 457 ft | 3 kts | 313° |
| 2026-04-22 07:13 | 47.43104 | 19.25817 | 457 ft | 11 kts | 313° |
| 2026-04-22 07:13 | 47.43167 | 19.25717 | 456 ft | 15 kts | 312° |
| 2026-04-22 07:13 | 47.43243 | 19.25594 | 457 ft | 17 kts | 312° |
| 2026-04-22 07:14 | 47.43322 | 19.25467 | 456 ft | 13 kts | 312° |
| 2026-04-22 07:14 | 47.43344 | 19.25392 | 457 ft | 8 kts | 248° |
| 2026-04-22 07:14 | 47.43297 | 19.25327 | 455 ft | 10 kts | 221° |
| 2026-04-22 07:14 | 47.43238 | 19.25247 | 456 ft | 13 kts | 223° |
| 2026-04-22 07:15 | 47.43168 | 19.25152 | 455 ft | 15 kts | 223° |
| 2026-04-22 07:15 | 47.43106 | 19.25068 | 457 ft | 13 kts | 222° |
| 2026-04-22 07:15 | 47.43071 | 19.24984 | 455 ft | 8 kts | 298° |
| 2026-04-22 07:15 | 47.43081 | 19.24968 | 457 ft | 0 kts | 311° |
| 2026-04-22 07:16 | 47.43091 | 19.24952 | 457 ft | 9 kts | 311° |
| 2026-04-22 07:16 | 47.43279 | 19.24645 | 455 ft | 74 kts | 312° |
| 2026-04-22 07:16 | 47.43769 | 19.23858 | 455 ft | 131 kts | 312° |
| 2026-04-22 07:16 | 47.44482 | 19.22721 | 742 ft | 151 kts | 314° |
| 2026-04-22 07:17 | 47.45197 | 19.21568 | 1328 ft | 153 kts | 314° |
| 2026-04-22 07:17 | 47.45902 | 19.20418 | 1953 ft | 151 kts | 312° |
| 2026-04-22 07:17 | 47.46622 | 19.19250 | 2365 ft | 162 kts | 315° |
| 2026-04-22 07:17 | 47.47437 | 19.17941 | 2627 ft | 185 kts | 315° |
| 2026-04-22 07:18 | 47.48340 | 19.16411 | 2958 ft | 211 kts | 307° |
| 2026-04-22 07:18 | 47.49022 | 19.14376 | 3442 ft | 238 kts | 290° |
| 2026-04-22 07:18 | 47.49267 | 19.11846 | 4090 ft | 259 kts | 270° |
| 2026-04-22 07:18 | 47.48917 | 19.09189 | 5005 ft | 269 kts | 251° |
| 2026-04-22 07:19 | 47.47957 | 19.06794 | 5970 ft | 276 kts | 230° |
| 2026-04-22 07:19 | 47.46457 | 19.04992 | 6919 ft | 282 kts | 208° |
| 2026-04-22 07:19 | 47.44588 | 19.04091 | 7813 ft | 286 kts | 186° |
| 2026-04-22 07:19 | 47.42590 | 19.04003 | 8721 ft | 289 kts | 182° |
| 2026-04-22 07:20 | 47.40590 | 19.03570 | 9595 ft | 293 kts | 195° |
| 2026-04-22 07:20 | 47.38681 | 19.02481 | 10376 ft | 300 kts | 207° |
| 2026-04-22 07:20 | 47.36810 | 19.00875 | 10672 ft | 323 kts | 215° |
| 2026-04-22 07:20 | 47.34941 | 18.98852 | 11065 ft | 341 kts | 217° |
| 2026-04-22 07:21 | 47.32993 | 18.96804 | 11755 ft | 347 kts | 214° |
| 2026-04-22 07:21 | 47.30935 | 18.94894 | 12481 ft | 351 kts | 210° |
| 2026-04-22 07:21 | 47.28764 | 18.93205 | 13221 ft | 355 kts | 205° |
| 2026-04-22 07:21 | 47.26475 | 18.91787 | 13917 ft | 359 kts | 200° |
| 2026-04-22 07:22 | 47.24079 | 18.90696 | 14607 ft | 362 kts | 194° |
| 2026-04-22 07:22 | 47.21590 | 18.89991 | 15258 ft | 366 kts | 187° |
| 2026-04-22 07:22 | 47.19049 | 18.89539 | 15899 ft | 370 kts | 191° |
| 2026-04-22 07:22 | 47.16603 | 18.88344 | 16533 ft | 373 kts | 206° |
| 2026-04-22 07:23 | 47.14270 | 18.86645 | 17183 ft | 376 kts | 206° |
| 2026-04-22 07:23 | 47.11781 | 18.85421 | 17798 ft | 380 kts | 190° |
| 2026-04-22 07:23 | 47.09134 | 18.85380 | 18394 ft | 384 kts | 170° |
| 2026-04-22 07:23 | 47.06585 | 18.86564 | 19009 ft | 387 kts | 153° |
| 2026-04-22 07:24 | 47.04301 | 18.88654 | 19610 ft | 389 kts | 141° |
| 2026-04-22 07:24 | 47.02138 | 18.91064 | 20199 ft | 392 kts | 142° |
| 2026-04-22 07:24 | 46.99927 | 18.93429 | 20778 ft | 396 kts | 143° |
| 2026-04-22 07:24 | 46.97673 | 18.95777 | 21328 ft | 399 kts | 144° |
| 2026-04-22 07:25 | 46.95392 | 18.98123 | 21871 ft | 402 kts | 144° |
| 2026-04-22 07:25 | 46.93092 | 19.00480 | 22387 ft | 405 kts | 144° |
| 2026-04-22 07:25 | 46.90774 | 19.02865 | 22866 ft | 409 kts | 144° |
| 2026-04-22 07:25 | 46.88443 | 19.05273 | 23338 ft | 412 kts | 145° |
| 2026-04-22 07:26 | 46.86056 | 19.07627 | 23800 ft | 415 kts | 146° |
| 2026-04-22 07:26 | 46.83617 | 19.09918 | 24260 ft | 418 kts | 147° |
| 2026-04-22 07:26 | 46.81143 | 19.12178 | 24705 ft | 421 kts | 148° |
| 2026-04-22 07:26 | 46.78649 | 19.14442 | 25138 ft | 424 kts | 148° |
| 2026-04-22 07:27 | 46.76139 | 19.16730 | 25556 ft | 426 kts | 148° |
| 2026-04-22 07:27 | 46.73619 | 19.19039 | 25972 ft | 429 kts | 148° |
| 2026-04-22 07:27 | 46.71088 | 19.21371 | 26378 ft | 432 kts | 148° |
| 2026-04-22 07:27 | 46.68546 | 19.23727 | 26778 ft | 435 kts | 148° |
| 2026-04-22 07:28 | 46.63412 | 19.28502 | 27553 ft | 440 kts | 148° |
| 2026-04-22 07:28 | 46.60824 | 19.30903 | 27935 ft | 443 kts | 148° |
| 2026-04-22 07:28 | 46.58218 | 19.33315 | 28290 ft | 445 kts | 148° |
| 2026-04-22 07:29 | 46.55593 | 19.35734 | 28646 ft | 448 kts | 148° |
| 2026-04-22 07:29 | 46.52954 | 19.38156 | 28995 ft | 450 kts | 148° |
| 2026-04-22 07:29 | 46.50296 | 19.40593 | 29326 ft | 453 kts | 148° |
| 2026-04-22 07:29 | 46.47621 | 19.43044 | 29641 ft | 456 kts | 148° |
| 2026-04-22 07:30 | 46.44933 | 19.45506 | 29954 ft | 458 kts | 148° |
| 2026-04-22 07:30 | 46.42232 | 19.47980 | 30268 ft | 460 kts | 148° |
| 2026-04-22 07:30 | 46.39518 | 19.50464 | 30558 ft | 463 kts | 149° |
| 2026-04-22 07:30 | 46.36788 | 19.52963 | 30828 ft | 466 kts | 149° |
| 2026-04-22 07:31 | 46.34080 | 19.55441 | 31080 ft | 468 kts | 149° |
| 2026-04-22 07:31 | 46.31317 | 19.57966 | 31353 ft | 471 kts | 149° |
| 2026-04-22 07:31 | 46.28547 | 19.60493 | 31718 ft | 470 kts | 149° |
| 2026-04-22 07:31 | 46.25779 | 19.63008 | 32086 ft | 470 kts | 149° |
| 2026-04-22 07:32 | 46.23009 | 19.65521 | 32426 ft | 470 kts | 149° |
| 2026-04-22 07:32 | 46.20197 | 19.67937 | 32740 ft | 470 kts | 155° |
| 2026-04-22 07:32 | 46.17197 | 19.69780 | 33067 ft | 468 kts | 163° |
| 2026-04-22 07:32 | 46.14057 | 19.70960 | 33390 ft | 466 kts | 171° |
| 2026-04-22 07:33 | 46.10879 | 19.71878 | 33712 ft | 466 kts | 171° |
| 2026-04-22 07:33 | 46.07700 | 19.72811 | 34040 ft | 466 kts | 171° |
| 2026-04-22 07:33 | 46.04521 | 19.73756 | 34371 ft | 466 kts | 171° |
| 2026-04-22 07:33 | 46.01343 | 19.74702 | 34687 ft | 467 kts | 171° |
| 2026-04-22 07:34 | 45.98159 | 19.75646 | 34981 ft | 467 kts | 171° |
| 2026-04-22 07:34 | 45.94970 | 19.76592 | 35134 ft | 468 kts | 171° |
| 2026-04-22 07:34 | 45.88613 | 19.78472 | 35165 ft | 466 kts | 171° |
| 2026-04-22 07:35 | 45.82264 | 19.80332 | 35164 ft | 465 kts | 171° |
| 2026-04-22 07:35 | 45.75919 | 19.82181 | 35165 ft | 465 kts | 171° |
| 2026-04-22 07:36 | 45.69573 | 19.84021 | 35155 ft | 465 kts | 171° |
| 2026-04-22 07:36 | 45.63228 | 19.85858 | 35156 ft | 465 kts | 171° |
| 2026-04-22 07:37 | 45.56881 | 19.87704 | 35155 ft | 465 kts | 171° |
| 2026-04-22 07:37 | 45.50531 | 19.89550 | 35154 ft | 466 kts | 171° |
| 2026-04-22 07:38 | 45.44176 | 19.91389 | 35154 ft | 466 kts | 171° |
| 2026-04-22 07:38 | 45.37820 | 19.93227 | 35152 ft | 467 kts | 172° |
| 2026-04-22 07:39 | 45.31452 | 19.95055 | 35154 ft | 467 kts | 172° |
| 2026-04-22 07:39 | 45.25085 | 19.96875 | 35154 ft | 467 kts | 172° |
| 2026-04-22 07:40 | 45.18706 | 19.98700 | 35156 ft | 467 kts | 172° |
| 2026-04-22 07:40 | 45.12329 | 20.00534 | 35159 ft | 468 kts | 172° |
| 2026-04-22 07:41 | 45.05949 | 20.02352 | 35164 ft | 468 kts | 173° |
| 2026-04-22 07:41 | 44.99569 | 20.04159 | 35164 ft | 468 kts | 173° |
| 2026-04-22 07:42 | 44.93190 | 20.05969 | 35161 ft | 467 kts | 173° |
| 2026-04-22 07:42 | 44.86813 | 20.07779 | 35158 ft | 467 kts | 173° |
| 2026-04-22 07:43 | 44.80437 | 20.09581 | 35156 ft | 468 kts | 173° |
| 2026-04-22 07:43 | 44.74056 | 20.11373 | 35151 ft | 468 kts | 173° |
| 2026-04-22 07:44 | 44.67672 | 20.13168 | 35150 ft | 468 kts | 174° |
| 2026-04-22 07:44 | 44.61274 | 20.14965 | 35151 ft | 469 kts | 174° |
| 2026-04-22 07:45 | 44.54876 | 20.16758 | 35152 ft | 469 kts | 174° |
| 2026-04-22 07:45 | 44.48477 | 20.18534 | 35151 ft | 469 kts | 174° |
| 2026-04-22 07:46 | 44.42081 | 20.20308 | 35146 ft | 469 kts | 174° |
| 2026-04-22 07:46 | 44.35726 | 20.22081 | 35142 ft | 469 kts | 174° |
| 2026-04-22 07:47 | 44.29330 | 20.23858 | 35136 ft | 469 kts | 174° |
| 2026-04-22 07:47 | 44.22925 | 20.25623 | 35137 ft | 469 kts | 174° |
| 2026-04-22 07:48 | 44.16515 | 20.27385 | 35140 ft | 470 kts | 174° |
| 2026-04-22 07:48 | 44.11135 | 20.28878 | 35137 ft | 470 kts | 174° |
| 2026-04-22 07:49 | 44.04723 | 20.30658 | 35136 ft | 470 kts | 174° |
| 2026-04-22 07:49 | 43.98304 | 20.32412 | 35129 ft | 470 kts | 175° |
| 2026-04-22 07:50 | 43.91927 | 20.34148 | 35136 ft | 470 kts | 175° |
| 2026-04-22 07:50 | 43.85510 | 20.35913 | 35133 ft | 470 kts | 175° |
| 2026-04-22 07:51 | 43.79101 | 20.37668 | 35133 ft | 469 kts | 175° |
| 2026-04-22 07:51 | 43.72687 | 20.39407 | 35126 ft | 470 kts | 175° |
| 2026-04-22 07:52 | 43.66268 | 20.41140 | 35128 ft | 470 kts | 175° |
| 2026-04-22 07:52 | 43.59851 | 20.42876 | 35132 ft | 470 kts | 175° |
| 2026-04-22 07:53 | 43.53441 | 20.44614 | 35131 ft | 469 kts | 175° |
| 2026-04-22 07:53 | 43.47029 | 20.46343 | 35128 ft | 470 kts | 175° |
| 2026-04-22 07:54 | 43.40619 | 20.48065 | 35124 ft | 469 kts | 175° |
| 2026-04-22 07:54 | 43.34217 | 20.49784 | 35124 ft | 469 kts | 175° |
| 2026-04-22 07:55 | 43.27811 | 20.51506 | 35121 ft | 468 kts | 175° |
| 2026-04-22 07:55 | 43.21414 | 20.53218 | 35117 ft | 468 kts | 176° |
| 2026-04-22 07:56 | 43.18218 | 20.54067 | 35000 ft | 469 kts | 176° |
| 2026-04-22 07:56 | 43.14997 | 20.54918 | 34071 ft | 477 kts | 176° |
| 2026-04-22 07:56 | 43.11710 | 20.55780 | 33111 ft | 484 kts | 176° |
| 2026-04-22 07:56 | 43.08387 | 20.56656 | 32142 ft | 489 kts | 176° |
| 2026-04-22 07:57 | 43.05043 | 20.57548 | 31531 ft | 486 kts | 176° |
| 2026-04-22 07:57 | 43.01754 | 20.58509 | 30967 ft | 485 kts | 172° |
| 2026-04-22 07:57 | 42.98555 | 20.60029 | 30373 ft | 487 kts | 165° |
| 2026-04-22 07:57 | 42.95409 | 20.61716 | 29765 ft | 484 kts | 166° |
| 2026-04-22 07:58 | 42.92290 | 20.63377 | 29177 ft | 479 kts | 166° |
| 2026-04-22 07:58 | 42.89201 | 20.65014 | 28588 ft | 474 kts | 166° |
| 2026-04-22 07:58 | 42.86140 | 20.66627 | 28010 ft | 470 kts | 166° |
| 2026-04-22 07:58 | 42.83104 | 20.68216 | 27429 ft | 465 kts | 166° |
| 2026-04-22 07:59 | 42.80096 | 20.69790 | 26873 ft | 461 kts | 166° |
| 2026-04-22 07:59 | 42.77114 | 20.71351 | 26304 ft | 457 kts | 166° |
| 2026-04-22 07:59 | 42.74165 | 20.72896 | 25758 ft | 452 kts | 166° |
| 2026-04-22 07:59 | 42.71248 | 20.74428 | 25228 ft | 447 kts | 166° |
| 2026-04-22 08:00 | 42.68367 | 20.75943 | 24702 ft | 442 kts | 166° |
| 2026-04-22 08:00 | 42.65513 | 20.77442 | 24199 ft | 437 kts | 166° |
| 2026-04-22 08:00 | 42.62698 | 20.78917 | 23729 ft | 432 kts | 166° |
| 2026-04-22 08:00 | 42.59911 | 20.80370 | 23240 ft | 427 kts | 166° |
| 2026-04-22 08:01 | 42.57153 | 20.81804 | 22778 ft | 422 kts | 166° |
| 2026-04-22 08:01 | 42.54419 | 20.83225 | 22310 ft | 419 kts | 166° |
| 2026-04-22 08:01 | 42.51704 | 20.84636 | 21833 ft | 417 kts | 166° |
| 2026-04-22 08:01 | 42.49007 | 20.86036 | 21367 ft | 414 kts | 166° |
| 2026-04-22 08:02 | 42.46332 | 20.87425 | 20876 ft | 410 kts | 166° |
| 2026-04-22 08:02 | 42.43682 | 20.88801 | 20391 ft | 406 kts | 166° |
| 2026-04-22 08:02 | 42.41052 | 20.90168 | 19890 ft | 403 kts | 165° |
| 2026-04-22 08:02 | 42.38442 | 20.91521 | 19388 ft | 399 kts | 165° |
| 2026-04-22 08:03 | 42.35857 | 20.92860 | 18878 ft | 397 kts | 165° |
| 2026-04-22 08:03 | 42.33286 | 20.94190 | 18370 ft | 394 kts | 165° |
| 2026-04-22 08:03 | 42.30734 | 20.95508 | 17858 ft | 391 kts | 164° |
| 2026-04-22 08:03 | 42.28207 | 20.96814 | 17351 ft | 387 kts | 164° |
| 2026-04-22 08:04 | 42.25703 | 20.98109 | 16842 ft | 383 kts | 164° |
| 2026-04-22 08:04 | 42.23231 | 20.99389 | 16340 ft | 378 kts | 164° |
| 2026-04-22 08:04 | 42.20828 | 21.00631 | 15845 ft | 374 kts | 163° |
| 2026-04-22 08:04 | 42.18414 | 21.01877 | 15354 ft | 369 kts | 163° |
| 2026-04-22 08:05 | 42.16027 | 21.03107 | 14856 ft | 365 kts | 163° |
| 2026-04-22 08:05 | 42.13744 | 21.04590 | 14377 ft | 364 kts | 151° |
| 2026-04-22 08:05 | 42.11777 | 21.06715 | 13896 ft | 362 kts | 136° |
| 2026-04-22 08:05 | 42.10231 | 21.09375 | 13401 ft | 361 kts | 123° |
| 2026-04-22 08:06 | 42.09156 | 21.12400 | 12922 ft | 355 kts | 112° |
| 2026-04-22 08:06 | 42.08239 | 21.15428 | 12452 ft | 353 kts | 113° |
| 2026-04-22 08:06 | 42.07305 | 21.18465 | 11961 ft | 349 kts | 113° |
| 2026-04-22 08:06 | 42.06378 | 21.21477 | 11409 ft | 351 kts | 112° |
| 2026-04-22 08:07 | 42.05446 | 21.24501 | 10922 ft | 347 kts | 112° |
| 2026-04-22 08:07 | 42.04525 | 21.27481 | 10460 ft | 344 kts | 112° |
| 2026-04-22 08:07 | 42.03623 | 21.30406 | 10283 ft | 332 kts | 112° |
| 2026-04-22 08:07 | 42.02754 | 21.33233 | 10149 ft | 321 kts | 112° |
| 2026-04-22 08:08 | 42.01916 | 21.35949 | 10028 ft | 308 kts | 112° |
| 2026-04-22 08:08 | 42.01103 | 21.38567 | 9829 ft | 300 kts | 111° |
| 2026-04-22 08:08 | 42.00300 | 21.41148 | 9434 ft | 297 kts | 111° |
| 2026-04-22 08:08 | 41.99514 | 21.43699 | 9042 ft | 294 kts | 111° |
| 2026-04-22 08:09 | 41.98742 | 21.46221 | 8605 ft | 289 kts | 111° |
| 2026-04-22 08:09 | 41.97978 | 21.48705 | 8199 ft | 286 kts | 111° |
| 2026-04-22 08:09 | 41.97216 | 21.51147 | 7818 ft | 282 kts | 111° |
| 2026-04-22 08:09 | 41.96453 | 21.53585 | 7442 ft | 283 kts | 111° |
| 2026-04-22 08:10 | 41.95693 | 21.56015 | 7186 ft | 279 kts | 111° |
| 2026-04-22 08:10 | 41.94957 | 21.58378 | 7045 ft | 268 kts | 110° |
| 2026-04-22 08:10 | 41.94141 | 21.60571 | 6927 ft | 258 kts | 123° |
| 2026-04-22 08:10 | 41.92976 | 21.62329 | 6795 ft | 248 kts | 139° |
| 2026-04-22 08:11 | 41.91570 | 21.63561 | 6666 ft | 235 kts | 154° |
| 2026-04-22 08:11 | 41.90069 | 21.64253 | 6538 ft | 222 kts | 166° |
| 2026-04-22 08:11 | 41.88618 | 21.64750 | 6453 ft | 207 kts | 165° |
| 2026-04-22 08:11 | 41.87233 | 21.65233 | 6146 ft | 205 kts | 165° |
| 2026-04-22 08:12 | 41.85861 | 21.65712 | 6003 ft | 203 kts | 165° |
| 2026-04-22 08:12 | 41.84496 | 21.66202 | 6005 ft | 203 kts | 163° |
| 2026-04-22 08:12 | 41.83199 | 21.66947 | 6002 ft | 203 kts | 150° |
| 2026-04-22 08:12 | 41.82058 | 21.68023 | 5718 ft | 201 kts | 137° |
| 2026-04-22 08:13 | 41.81121 | 21.69401 | 5386 ft | 200 kts | 124° |
| 2026-04-22 08:13 | 41.80380 | 21.70964 | 5055 ft | 198 kts | 120° |
| 2026-04-22 08:13 | 41.79659 | 21.72530 | 4746 ft | 197 kts | 120° |
| 2026-04-22 08:13 | 41.78938 | 21.74086 | 4428 ft | 196 kts | 120° |
| 2026-04-22 08:14 | 41.78201 | 21.75614 | 4106 ft | 195 kts | 127° |
| 2026-04-22 08:14 | 41.77143 | 21.76687 | 4000 ft | 188 kts | 155° |
| 2026-04-22 08:14 | 41.75914 | 21.77032 | 4017 ft | 177 kts | 180° |
| 2026-04-22 08:14 | 41.74724 | 21.76692 | 4014 ft | 175 kts | 204° |
| 2026-04-22 08:15 | 41.73753 | 21.75743 | 4010 ft | 173 kts | 229° |
| 2026-04-22 08:15 | 41.73160 | 21.74367 | 4002 ft | 171 kts | 253° |
| 2026-04-22 08:15 | 41.73031 | 21.72807 | 4006 ft | 169 kts | 277° |
| 2026-04-22 08:15 | 41.73361 | 21.71344 | 4009 ft | 167 kts | 299° |
| 2026-04-22 08:16 | 41.74092 | 21.70163 | 4013 ft | 165 kts | 321° |
| 2026-04-22 08:16 | 41.75099 | 21.69451 | 4010 ft | 164 kts | 343° |
| 2026-04-22 08:16 | 41.76205 | 21.69066 | 4006 ft | 164 kts | 346° |
| 2026-04-22 08:16 | 41.77313 | 21.68684 | 4017 ft | 164 kts | 346° |
| 2026-04-22 08:17 | 41.78420 | 21.68301 | 4013 ft | 164 kts | 346° |
| 2026-04-22 08:17 | 41.79527 | 21.67918 | 4012 ft | 164 kts | 346° |
| 2026-04-22 08:17 | 41.80637 | 21.67534 | 3901 ft | 164 kts | 346° |
| 2026-04-22 08:17 | 41.81740 | 21.67153 | 3709 ft | 163 kts | 347° |
| 2026-04-22 08:18 | 41.82838 | 21.66772 | 3482 ft | 163 kts | 346° |
| 2026-04-22 08:18 | 41.83932 | 21.66392 | 3248 ft | 163 kts | 346° |
| 2026-04-22 08:18 | 41.85030 | 21.66011 | 3013 ft | 163 kts | 346° |
| 2026-04-22 08:18 | 41.86128 | 21.65630 | 2775 ft | 163 kts | 344° |
| 2026-04-22 08:19 | 41.87218 | 21.65252 | 2526 ft | 157 kts | 344° |
| 2026-04-22 08:19 | 41.88221 | 21.64905 | 2318 ft | 142 kts | 344° |
| 2026-04-22 08:19 | 41.89152 | 21.64581 | 2110 ft | 135 kts | 344° |
| 2026-04-22 08:19 | 41.90052 | 21.64269 | 1938 ft | 133 kts | 343° |
| 2026-04-22 08:20 | 41.90940 | 21.63952 | 1760 ft | 132 kts | 344° |
| 2026-04-22 08:20 | 41.91828 | 21.63657 | 1557 ft | 131 kts | 345° |
| 2026-04-22 08:20 | 41.92709 | 21.63352 | 1356 ft | 131 kts | 344° |
| 2026-04-22 08:20 | 41.93591 | 21.63042 | 1141 ft | 131 kts | 343° |
| 2026-04-22 08:21 | 41.94468 | 21.62721 | 891 ft | 130 kts | 345° |
| 2026-04-22 08:21 | 41.95308 | 21.62435 | 781 ft | 113 kts | 345° |
| 2026-04-22 08:21 | 41.95919 | 21.62227 | 783 ft | 66 kts | 346° |
| 2026-04-22 08:21 | 41.96223 | 21.62125 | 787 ft | 36 kts | 346° |
| 2026-04-22 08:22 | 41.96424 | 21.62052 | 786 ft | 15 kts | 345° |
| 2026-04-22 08:22 | 41.96503 | 21.62095 | 787 ft | 14 kts | 73° |
| 2026-04-22 08:22 | 41.96526 | 21.62215 | 787 ft | 10 kts | 79° |
| 2026-04-22 08:22 | 41.96496 | 21.62291 | 786 ft | 11 kts | 151° |
| 2026-04-22 08:23 | 41.96416 | 21.62323 | 786 ft | 13 kts | 165° |
| 2026-04-22 08:23 | 41.96328 | 21.62354 | 785 ft | 10 kts | 165° |
| 2026-04-22 08:23 | 41.96281 | 21.62397 | 785 ft | 8 kts | 91° |
| 2026-04-22 08:23 | 41.96260 | 21.62467 | 785 ft | 8 kts | 153° |
| 2026-04-22 08:24 | 41.96206 | 21.62483 | 784 ft | 8 kts | 172° |
| 2026-04-22 08:24 | 41.96144 | 21.62496 | 784 ft | 9 kts | 169° |
| 2026-04-22 08:24 | 41.96111 | 21.62528 | 784 ft | 4 kts | 110° |
| 2026-04-22 08:24 | 41.96105 | 21.62566 | 784 ft | 3 kts | 101° |
| 2026-04-22 08:25 | 41.96103 | 21.62581 | 784 ft | 0 kts | 101° |